Time;durP1;ratioP1;P1;durP2;ratioP2;P2;SDS_P1;SDS_P2;PMS_P1;PMS_P2;Temp;Humidity;BMP_temperature;BMP_pressure;BME280_temperature;BME280_humidity;BME280_pressure;Samples;Min_cycle;Max_cycle;Signal;HPM_P1;HPM_P2
2021/08/01 11:57:50;;;;;;;18.15;11.00;;;;;;;21.40;76.69;100907.50;5687745;23;20053;-66
2021/08/01 12:05:45;;;;;;;20.00;12.63;;;;;;;21.59;74.62;100897.75;5383378;24;20275;-65
2021/08/01 12:57:35;;;;;;;17.23;11.55;;;;;;;21.31;76.18;100922.97;5640729;23;20105;-65
2021/08/01 13:00:16;;;;;;;16.80;9.95;;;;;;;21.20;77.37;100920.16;4786785;29;20153;-63
2021/08/01 13:02:44;;;;;;;19.92;12.60;;;;;;;21.15;78.14;100920.81;4800002;29;20720;-63
2021/08/01 13:05:21;;;;;;;13.70;9.40;;;;;;;21.32;76.45;100926.44;4810038;29;21552;-64
2021/08/01 13:07:48;;;;;;;14.60;8.75;;;;;;;21.36;76.77;100926.81;4815935;29;20145;-63
2021/08/01 13:10:16;;;;;;;12.30;8.32;;;;;;;21.36;78.92;100930.31;4809883;29;20061;-64
2021/08/01 13:13:13;;;;;;;8.65;6.57;;;;;;;21.25;75.06;100929.16;4809548;29;20540;-62
2021/08/01 13:15:43;;;;;;;10.70;6.30;;;;;;;20.90;73.87;100924.22;4795633;29;20062;-63
2021/08/01 13:18:30;;;;;;;8.98;6.35;;;;;;;20.74;75.83;100925.50;4813869;29;20841;-62
2021/08/01 13:20:59;;;;;;;7.90;6.35;;;;;;;20.54;76.81;100927.38;4790813;29;20077;-63
2021/08/01 13:23:31;;;;;;;10.88;6.53;;;;;;;20.69;78.88;100930.63;4800287;29;20077;-63
2021/08/01 13:26:16;;;;;;;8.05;6.05;;;;;;;20.60;75.50;100934.59;4811715;29;20298;-63
2021/08/01 13:28:46;;;;;;;7.43;5.22;;;;;;;20.34;72.52;100935.44;4808885;29;20046;-63
2021/08/01 13:31:13;;;;;;;6.45;5.13;;;;;;;20.47;73.99;100938.06;4815768;29;20054;-63
2021/08/01 13:33:51;;;;;;;7.35;5.20;;;;;;;20.32;73.19;100932.97;4808360;29;20619;-63
2021/08/01 13:36:17;;;;;;;;;;;;;;;20.30;75.26;100931.53;4816478;29;20046;-63
2021/08/01 13:38:44;;;;;;;8.27;5.80;;;;;;;20.45;77.00;100933.97;4810366;29;19928;-63
2021/08/01 13:41:20;;;;;;;8.38;5.72;;;;;;;20.49;76.24;100937.84;4802420;29;20503;-63
2021/08/01 13:44:15;;;;;;;6.97;4.72;;;;;;;20.52;73.40;100935.59;4798631;29;20512;-63
2021/08/01 13:47:03;;;;;;;5.30;4.72;;;;;;;20.42;71.98;100932.53;4813468;29;20053;-62
2021/08/01 13:49:30;;;;;;;5.82;4.88;;;;;;;20.86;75.14;100932.84;4808564;29;20058;-63
2021/08/01 13:51:56;;;;;;;6.22;4.70;;;;;;;20.78;70.77;100933.91;4816360;29;20443;-63
2021/08/01 13:54:22;;;;;;;6.90;4.70;;;;;;;20.92;74.11;100938.13;4806507;29;20064;-63
2021/08/01 13:56:49;;;;;;;5.53;3.97;;;;;;;20.97;73.54;100936.69;4804191;29;20050;-63
2021/08/01 13:59:15;;;;;;;9.57;4.82;;;;;;;20.91;72.30;100931.19;4810887;29;20237;-63
2021/08/01 14:01:42;;;;;;;6.15;4.88;;;;;;;20.79;69.92;100940.03;4816092;29;20069;-63
2021/08/01 14:04:10;;;;;;;6.32;4.88;;;;;;;21.01;70.74;100941.41;4811594;29;20577;-63
2021/08/01 14:06:37;;;;;;;7.65;5.10;;;;;;;21.34;70.99;100945.72;4814220;29;20053;-63
2021/08/01 14:09:04;;;;;;;7.28;5.15;;;;;;;21.72;70.86;100936.88;4811353;29;20058;-63
2021/08/01 14:11:31;;;;;;;7.43;5.30;;;;;;;21.96;69.56;100940.56;4808635;29;20425;-63
2021/08/01 14:13:57;;;;;;;8.02;5.40;;;;;;;21.65;67.97;100946.78;4820136;29;20559;-63
2021/08/01 14:16:24;;;;;;;6.85;4.90;;;;;;;21.80;69.40;100947.28;4813439;29;20136;-63
2021/08/01 14:18:50;;;;;;;6.13;4.15;;;;;;;21.48;65.94;100955.31;4821016;29;20157;-63
2021/08/01 14:21:17;;;;;;;8.45;4.00;;;;;;;21.53;66.00;100950.13;4808056;29;20057;-62
2021/08/01 14:23:43;;;;;;;5.93;4.43;;;;;;;21.21;67.00;100953.78;4815025;29;20060;-62
2021/08/01 14:26:10;;;;;;;6.63;4.75;;;;;;;21.03;66.08;100949.16;4813855;29;20066;-62
2021/08/01 14:28:38;;;;;;;5.45;4.10;;;;;;;21.21;65.32;100956.44;4820567;29;20139;-63
2021/08/01 14:31:06;;;;;;;5.80;3.60;;;;;;;21.27;65.06;100952.97;4817648;29;20054;-63
2021/08/01 14:33:35;;;;;;;6.47;3.97;;;;;;;21.38;67.22;100954.09;4815396;29;20053;-62
2021/08/01 14:36:02;;;;;;;5.97;3.92;;;;;;;21.44;66.87;100955.94;4795272;29;20149;-63
2021/08/01 14:38:30;;;;;;;8.65;4.28;;;;;;;21.26;64.45;100959.31;4810017;29;20178;-63
2021/08/01 14:40:58;;;;;;;7.25;4.63;;;;;;;21.29;67.51;100953.56;4820059;29;20145;-63
2021/08/01 14:43:25;;;;;;;7.15;4.85;;;;;;;21.47;66.77;100956.34;4812726;29;20137;-63
2021/08/01 14:45:53;;;;;;;7.95;4.20;;;;;;;21.68;64.69;100957.03;4820425;29;20150;-62
2021/08/01 14:48:22;;;;;;;6.57;4.20;;;;;;;21.90;64.92;100957.47;4808075;29;20081;-63
2021/08/01 14:50:51;;;;;;;7.95;5.15;;;;;;;;;;4814488;29;20995;-63
2021/08/01 14:53:19;;;;;;;8.38;5.13;;;;;;;22.10;64.36;100954.63;4813461;29;20057;-64
2021/08/01 14:55:58;;;;;;;8.13;5.82;;;;;;;22.43;65.08;100953.53;4810667;29;20042;-63
2021/08/01 14:58:25;;;;;;;7.25;5.38;;;;;;;;;;4818324;29;20058;-62
2021/08/01 15:01:13;;;;;;;7.38;5.55;;;;;;;22.58;66.19;100958.47;4811544;29;20046;-64
2021/08/01 15:04:08;;;;;;;8.30;5.68;;;;;;;22.65;66.71;100964.59;4813464;29;20065;-62
2021/08/01 15:06:42;;;;;;;10.07;6.25;;;;;;;22.64;66.45;100969.13;4815648;29;20141;-62
2021/08/01 15:09:33;;;;;;;;;;;;;;;22.47;63.96;100962.72;4818087;29;20058;-62
2021/08/01 15:12:22;;;;;;;8.10;6.40;;;;;;;22.69;64.61;100969.25;4801566;29;20561;-62
2021/08/01 15:14:55;;;;;;;8.43;6.18;;;;;;;22.75;64.93;100962.19;4809680;29;20497;-62
2021/08/01 15:17:30;;;;;;;10.85;7.43;;;;;;;22.85;63.49;100959.00;4806806;29;20081;-62
2021/08/01 15:20:12;;;;;;;9.13;6.38;;;;;;;22.89;64.88;100950.31;4818021;29;20065;-62
2021/08/01 15:23:00;;;;;;;9.43;6.43;;;;;;;22.78;62.97;100967.09;4809242;29;20050;-62
2021/08/01 15:25:29;;;;;;;8.15;5.10;;;;;;;22.71;62.30;100969.03;4816381;29;20160;-61
2021/08/01 15:27:56;;;;;;;6.47;4.70;;;;;;;22.75;61.97;100974.75;4811965;29;20657;-62
2021/08/01 15:30:29;;;;;;;6.57;4.93;;;;;;;22.81;61.12;100979.22;4813769;29;20498;-63
2021/08/01 15:32:56;;;;;;;9.18;3.90;;;;;;;22.90;61.52;100981.34;4794387;29;20098;-63
2021/08/01 15:35:28;;;;;;;5.15;3.22;;;;;;;22.80;60.92;100988.28;4818521;29;20049;-63
2021/08/01 15:37:59;;;;;;;5.90;2.80;;;;;;;22.97;61.17;100986.59;4812044;29;20045;-63
2021/08/01 15:40:30;;;;;;;4.40;2.67;;;;;;;22.66;61.24;100988.44;4817800;29;20524;-62
2021/08/01 15:42:59;;;;;;;3.90;2.60;;;;;;;22.37;63.08;100999.84;4808713;29;20915;-63
2021/08/01 15:45:26;;;;;;;5.18;2.80;;;;;;;21.72;65.28;100993.75;4794678;29;20558;-63
2021/08/01 15:47:55;;;;;;;5.35;2.80;;;;;;;21.52;66.58;100991.22;4818545;29;20751;-62
2021/08/01 15:50:22;;;;;;;4.55;3.13;;;;;;;21.40;67.55;100992.88;4812851;29;20919;-63
2021/08/01 15:52:55;;;;;;;3.57;2.50;;;;;;;22.26;65.63;100986.13;4818369;29;20067;-62
2021/08/01 15:55:26;;;;;;;7.80;3.05;;;;;;;22.63;62.68;100980.84;4811356;29;20455;-63
2021/08/01 15:58:15;;;;;;;5.13;2.67;;;;;;;23.38;62.11;100981.59;4806819;29;20136;-63
2021/08/01 16:00:49;;;;;;;4.78;3.03;;;;;;;23.56;59.81;100978.03;4788472;29;20069;-62
2021/08/01 16:03:29;;;;;;;3.80;2.42;;;;;;;23.17;60.04;100977.53;4817959;29;20060;-63
2021/08/01 16:06:02;;;;;;;4.68;2.63;;;;;;;23.00;61.13;100978.16;4809712;29;20065;-64
2021/08/01 16:08:41;;;;;;;4.10;2.47;;;;;;;22.83;61.47;100982.47;4810569;29;20150;-61
2021/08/01 16:11:09;;;;;;;3.30;2.65;;;;;;;22.66;62.11;100988.44;4805769;29;20539;-63
2021/08/01 16:13:40;;;;;;;6.28;3.25;;;;;;;22.51;62.34;100993.31;4816235;29;20064;-63
2021/08/01 16:16:14;;;;;;;7.05;3.28;;;;;;;22.47;62.73;100987.59;4812467;29;20165;-63
2021/08/01 16:18:41;;;;;;;5.63;3.20;;;;;;;22.37;62.24;100984.63;4808388;29;20110;-63
2021/08/01 16:21:08;;;;;;;6.10;3.40;;;;;;;22.35;63.94;100991.22;4807474;29;20060;-62
2021/08/01 16:23:36;;;;;;;6.07;3.30;;;;;;;22.35;64.17;100991.22;4813293;29;20137;-63
2021/08/01 16:26:03;;;;;;;7.78;3.88;;;;;;;22.65;63.74;100994.00;4799286;29;20145;-62
2021/08/01 16:28:31;;;;;;;6.38;3.55;;;;;;;22.66;62.02;100987.63;4807848;29;20050;-63
2021/08/01 16:30:59;;;;;;;5.25;3.28;;;;;;;22.74;61.96;100986.47;4817353;29;20056;-62
2021/08/01 16:33:25;;;;;;;5.03;3.25;;;;;;;22.67;62.14;100986.56;4810158;29;20054;-62
2021/08/01 16:35:52;;;;;;;7.75;2.90;;;;;;;22.59;62.43;100989.53;4817645;29;20050;-65
2021/08/01 16:38:19;;;;;;;3.15;2.28;;;;;;;22.58;61.70;100980.72;4808311;29;20070;-62
2021/08/01 16:41:07;;;;;;;5.32;2.20;;;;;;;22.31;60.76;100986.31;4812964;29;20062;-62
2021/08/01 16:43:56;;;;;;;4.43;2.20;;;;;;;22.08;60.26;100980.75;4809465;29;20062;-62
2021/08/01 16:46:25;;;;;;;4.38;2.25;;;;;;;21.97;61.96;100992.94;4815957;29;20054;-62
2021/08/01 16:49:11;;;;;;;4.35;2.55;;;;;;;21.95;62.06;100991.53;4811543;29;20084;-62
2021/08/01 16:51:59;;;;;;;3.72;2.42;;;;;;;21.95;61.53;100995.00;4813020;29;20502;-62
2021/08/01 16:55:05;;;;;;;3.25;2.13;;;;;;;21.77;62.24;100997.63;4806636;29;20104;-62
2021/08/01 16:57:36;;;;;;;4.28;2.40;;;;;;;21.70;62.70;100993.16;4799421;29;20049;-62
2021/08/01 17:00:08;;;;;;;4.93;2.75;;;;;;;21.69;62.95;101004.03;4808314;29;20058;-63
2021/08/01 17:02:35;;;;;;;7.57;3.75;;;;;;;21.55;63.03;101003.31;4815648;29;20057;-62
2021/08/01 17:05:05;;;;;;;4.75;2.42;;;;;;;21.34;65.16;100996.41;4808087;29;20069;-63
2021/08/01 17:07:32;;;;;;;5.68;2.80;;;;;;;21.56;65.18;100996.94;4818408;29;20486;-62
2021/08/01 17:10:03;;;;;;;8.35;3.17;;;;;;;21.57;64.45;100995.91;4804493;29;20074;-62
2021/08/01 17:12:30;;;;;;;5.82;3.08;;;;;;;21.60;64.42;100995.47;4813172;29;20130;-63
2021/08/01 17:15:00;;;;;;;4.53;2.60;;;;;;;21.58;63.75;100996.72;4816210;29;20918;-62
2021/08/01 17:17:27;;;;;;;3.75;2.25;;;;;;;21.38;63.68;101005.63;4806662;29;20058;-64
2021/08/01 17:19:55;;;;;;;4.95;2.47;;;;;;;21.42;64.08;101008.69;4811925;29;20061;-64
2021/08/01 17:22:25;;;;;;;6.07;2.47;;;;;;;21.51;64.05;101007.44;4807150;29;20474;-63
2021/08/01 17:24:54;;;;;;;4.70;2.50;;;;;;;21.45;63.76;101014.44;4816970;29;20078;-61
2021/08/01 17:27:23;;;;;;;4.88;2.60;;;;;;;21.47;64.26;101014.25;4809567;29;20050;-64
2021/08/01 17:29:54;;;;;;;4.85;2.10;;;;;;;21.65;63.43;101025.00;4817917;29;20064;-63
2021/08/01 17:32:26;;;;;;;5.57;2.70;;;;;;;21.59;62.95;101023.19;4804704;29;20073;-64
2021/08/01 17:35:02;;;;;;;11.27;2.50;;;;;;;21.36;64.00;101010.34;4797440;29;20053;-63
2021/08/01 17:37:29;;;;;;;6.15;2.45;;;;;;;21.00;63.11;101021.59;4809302;29;20137;-61
2021/08/01 17:39:58;;;;;;;9.30;2.60;;;;;;;21.05;64.81;101024.44;4816825;29;20085;-63
2021/08/01 17:42:29;;;;;;;7.45;2.72;;;;;;;21.17;63.59;101035.25;4815869;29;20101;-63
2021/08/01 17:44:58;;;;;;;4.82;2.60;;;;;;;21.05;63.74;101027.94;4805693;29;20140;-63
2021/08/01 17:47:30;;;;;;;5.72;2.33;;;;;;;21.08;63.71;101037.38;4798235;29;20042;-63
2021/08/01 17:49:57;;;;;;;4.80;2.22;;;;;;;21.08;62.98;101032.03;4805632;29;20056;-63
2021/08/01 17:52:29;;;;;;;8.17;3.70;;;;;;;21.09;63.33;101031.81;4815815;29;20050;-62
2021/08/01 17:54:57;;;;;;;4.97;2.67;;;;;;;21.23;64.01;101040.59;4769420;29;20875;-63
2021/08/01 17:57:25;;;;;;;5.78;2.40;;;;;;;21.09;62.95;101033.66;4815804;29;20388;-63
2021/08/01 17:59:53;;;;;;;10.43;2.42;;;;;;;21.03;63.54;101040.66;4768888;29;20077;-63
2021/08/01 18:02:23;;;;;;;4.85;2.25;;;;;;;20.88;63.92;101043.56;4814893;29;20085;-63
2021/08/01 18:04:50;;;;;;;5.18;2.17;;;;;;;20.92;64.08;101047.47;4798499;29;20097;-62
2021/08/01 18:07:22;;;;;;;5.40;2.20;;;;;;;21.05;63.73;101041.28;4812201;29;20060;-62
2021/08/01 18:09:59;;;;;;;4.30;2.10;;;;;;;20.84;64.84;101047.69;4815940;29;20046;-63
2021/08/01 18:12:58;;;;;;;12.85;3.00;;;;;;;20.38;66.48;101053.84;4802296;29;20137;-63
2021/08/01 18:15:29;;;;;;;6.85;2.67;;;;;;;20.57;66.47;101048.75;4808329;29;20064;-63
2021/08/01 18:17:59;;;;;;;7.13;2.80;;;;;;;20.44;66.72;101057.53;4815005;29;20149;-63
2021/08/01 18:20:26;;;;;;;10.45;2.88;;;;;;;20.22;67.15;101055.09;4814213;29;20794;-63
2021/08/01 18:22:57;;;;;;;9.38;2.63;;;;;;;20.05;68.02;101052.03;4799448;29;20148;-63
2021/08/01 18:25:24;;;;;;;6.60;2.70;;;;;;;20.12;68.24;101063.47;4812792;29;20064;-62
2021/08/01 18:27:50;;;;;;;7.10;2.70;;;;;;;20.34;68.38;101072.09;4804900;29;20296;-63
2021/08/01 18:30:18;;;;;;;7.55;2.83;;;;;;;20.46;65.60;101066.16;4816583;29;20884;-63
2021/08/01 18:32:45;;;;;;;13.15;4.22;;;;;;;20.55;66.12;101067.59;4812188;29;20076;-63
2021/08/01 18:35:16;;;;;;;4.10;2.80;;;;;;;20.71;65.76;101080.50;4807744;29;20149;-62
2021/08/01 18:37:44;;;;;;;8.98;2.63;;;;;;;20.66;64.91;101080.34;4808971;29;20064;-63
2021/08/01 18:40:20;;;;;;;14.38;5.68;;;;;;;20.47;65.74;101084.59;4812201;29;20081;-63
2021/08/01 18:42:53;;;;;;;8.38;3.65;;;;;;;20.34;65.69;101087.25;4815759;29;20419;-63
2021/08/01 18:45:21;;;;;;;8.32;2.85;;;;;;;20.29;66.37;101089.75;4820764;29;20995;-63
2021/08/01 18:47:53;;;;;;;5.93;2.70;;;;;;;20.19;66.73;101098.13;4816624;29;20141;-63
2021/08/01 18:50:22;;;;;;;6.85;2.50;;;;;;;20.26;66.30;101098.13;4811156;29;20137;-62
2021/08/01 18:53:01;;;;;;;8.07;2.53;;;;;;;20.40;66.00;101091.78;4812021;29;20158;-63
2021/08/01 18:55:29;;;;;;;9.15;2.88;;;;;;;20.44;65.17;101100.19;4804219;29;20165;-61
2021/08/01 18:57:58;;;;;;;9.07;3.25;;;;;;;20.62;65.43;101107.56;4815712;29;20563;-61
2021/08/01 19:00:26;;;;;;;6.43;2.67;;;;;;;20.56;64.69;101106.53;4811690;29;20152;-61
2021/08/01 19:02:53;;;;;;;9.82;3.25;;;;;;;20.46;64.46;101117.59;4804844;29;20068;-62
2021/08/01 19:05:21;;;;;;;9.02;2.88;;;;;;;20.50;64.14;101112.69;4812525;29;20414;-63
2021/08/01 19:07:48;;;;;;;8.50;3.00;;;;;;;20.41;64.63;101119.25;4821459;29;20553;-62
2021/08/01 19:10:15;;;;;;;6.05;2.58;;;;;;;20.20;65.22;101117.59;4808538;29;20056;-62
2021/08/01 19:12:42;;;;;;;8.30;2.92;;;;;;;20.27;65.35;101129.06;4808338;29;20136;-62
2021/08/01 19:15:09;;;;;;;8.73;2.70;;;;;;;20.26;64.99;101128.25;4813577;29;20050;-62
2021/08/01 19:18:04;;;;;;;8.88;2.83;;;;;;;20.21;65.09;101129.88;4808882;29;20081;-61
2021/08/01 19:20:46;;;;;;;5.88;2.53;;;;;;;20.27;65.09;101137.06;4807488;29;20279;-62
2021/08/01 19:23:24;;;;;;;9.45;2.50;;;;;;;20.29;64.67;101143.81;4797704;29;20110;-63
2021/08/01 19:26:04;;;;;;;9.65;2.67;;;;;;;20.29;63.85;101143.81;4810974;29;20061;-61
2021/08/01 19:28:35;;;;;;;5.10;2.45;;;;;;;20.31;64.04;101140.97;4814297;29;20041;-61
2021/08/01 19:31:07;;;;;;;8.02;2.53;;;;;;;20.55;62.92;101147.53;4817842;29;20057;-61
2021/08/01 19:33:42;;;;;;;9.10;2.72;;;;;;;20.46;63.90;101154.06;4805021;29;20531;-61
2021/08/01 19:36:10;;;;;;;7.53;2.72;;;;;;;20.41;62.86;101159.22;4804810;29;20156;-62
2021/08/01 19:38:37;;;;;;;;;;;;;;;20.48;63.40;101160.88;4809313;29;20858;-62
2021/08/01 19:41:04;;;;;;;11.93;2.92;;;;;;;20.48;63.20;101163.53;4819050;29;21289;-62
2021/08/01 19:43:33;;;;;;;6.85;2.72;;;;;;;20.40;62.90;101158.38;4812303;29;20085;-63
2021/08/01 19:46:03;;;;;;;6.40;2.30;;;;;;;20.26;63.51;101165.53;4816489;29;20060;-62
2021/08/01 19:48:30;;;;;;;7.53;2.22;;;;;;;20.10;63.81;101172.03;4806386;29;20054;-62
2021/08/01 19:50:56;;;;;;;8.68;2.90;;;;;;;20.20;63.35;101173.50;4810686;29;20085;-62
2021/08/01 19:53:23;;;;;;;9.32;2.90;;;;;;;19.99;62.97;101161.97;4816360;29;20064;-62
2021/08/01 19:55:50;;;;;;;7.72;2.97;;;;;;;20.05;63.27;101171.84;4806284;29;20136;-62
2021/08/01 19:58:17;;;;;;;11.32;3.72;;;;;;;20.18;62.39;101171.03;4810009;29;20468;-63
2021/08/01 20:00:43;;;;;;;11.48;3.75;;;;;;;19.94;63.41;101180.41;4811330;29;20140;-62
2021/08/01 20:03:10;;;;;;;7.07;2.70;;;;;;;19.88;63.28;101174.03;4816528;29;20413;-60
2021/08/01 20:05:39;;;;;;;11.38;3.00;;;;;;;19.91;62.93;101178.13;4806374;29;20054;-62
2021/08/01 20:08:06;;;;;;;7.95;2.58;;;;;;;19.88;63.03;101178.53;4824097;29;20141;-59
2021/08/01 20:10:32;;;;;;;11.00;2.83;;;;;;;19.68;63.83;101181.91;4803576;29;20245;-62
2021/08/01 20:12:59;;;;;;;11.02;3.25;;;;;;;19.63;63.84;101178.19;4819512;29;20056;-62
2021/08/01 20:15:25;;;;;;;10.02;3.90;;;;;;;19.69;63.99;101178.22;4812244;29;20580;-62
2021/08/01 20:17:52;;;;;;;10.05;3.25;;;;;;;19.60;63.92;101186.56;4814647;29;20557;-62
2021/08/01 20:20:18;;;;;;;14.07;3.47;;;;;;;19.50;63.85;101186.91;4809017;29;20392;-62
2021/08/01 20:22:45;;;;;;;7.53;3.00;;;;;;;19.56;63.87;101192.28;4804404;29;20074;-61
2021/08/01 20:25:12;;;;;;;9.75;2.78;;;;;;;19.69;63.31;101186.19;4812359;29;20207;-63
2021/08/01 20:27:38;;;;;;;16.15;3.38;;;;;;;19.52;62.98;101190.22;4811659;29;20055;-63
2021/08/01 20:30:06;;;;;;;14.40;3.03;;;;;;;19.63;63.84;101188.84;4815548;29;20635;-64
2021/08/01 20:32:34;;;;;;;7.60;2.97;;;;;;;19.65;64.07;101182.28;4807944;29;20615;-64
2021/08/01 20:35:01;;;;;;;6.40;2.90;;;;;;;19.70;63.36;101192.38;4818011;29;20118;-64
2021/08/01 20:37:27;;;;;;;7.20;2.97;;;;;;;19.43;63.50;101186.91;4802901;29;20099;-64
2021/08/01 20:39:54;;;;;;;9.98;3.25;;;;;;;19.29;64.50;101196.63;4817743;29;20072;-63
2021/08/01 20:42:20;;;;;;;14.02;3.50;;;;;;;19.13;65.08;101195.09;4817966;29;20175;-63
2021/08/01 20:44:46;;;;;;;14.35;3.20;;;;;;;19.07;65.51;101195.03;4798130;29;20536;-64
2021/08/01 20:47:15;;;;;;;10.50;3.13;;;;;;;18.32;67.27;101197.19;4813135;29;20085;-63
2021/08/01 20:49:41;;;;;;;13.02;5.03;;;;;;;18.15;68.15;101200.09;4801839;29;20491;-62
2021/08/01 20:52:08;;;;;;;11.88;4.53;;;;;;;17.89;68.82;101203.25;4817138;29;20542;-62
2021/08/01 20:54:35;;;;;;;16.90;4.00;;;;;;;17.65;70.66;101196.38;4809741;29;20064;-63
2021/08/01 20:57:03;;;;;;;14.15;4.60;;;;;;;17.46;71.62;101199.59;4815057;29;20062;-63
2021/08/01 20:59:30;;;;;;;11.53;4.13;;;;;;;17.18;72.50;101202.84;4804509;29;20050;-62
2021/08/01 21:01:56;;;;;;;13.60;3.92;;;;;;;17.00;72.87;101196.06;4820025;29;20353;-63
2021/08/01 21:04:23;;;;;;;8.63;3.22;;;;;;;16.92;73.62;101204.09;4810181;29;20156;-63
2021/08/01 21:06:49;;;;;;;11.32;3.17;;;;;;;16.82;73.88;101202.66;4813802;29;20050;-62
2021/08/01 21:09:16;;;;;;;12.25;3.25;;;;;;;16.73;74.39;101207.19;4817384;29;20152;-63
2021/08/01 21:11:42;;;;;;;14.90;3.95;;;;;;;16.60;74.86;101208.63;4797636;29;20054;-63
2021/08/01 21:14:10;;;;;;;13.30;4.13;;;;;;;16.56;74.69;101209.97;4808370;29;20494;-63
2021/08/01 21:16:37;;;;;;;11.63;3.37;;;;;;;16.55;74.02;101213.59;4801302;29;20141;-64
2021/08/01 21:19:04;;;;;;;14.13;3.67;;;;;;;16.44;74.99;101205.25;4817821;29;20289;-63
2021/08/01 21:21:30;;;;;;;13.32;4.28;;;;;;;16.43;74.14;101217.66;4811625;29;20577;-63
2021/08/01 21:23:58;;;;;;;10.50;3.13;;;;;;;16.43;74.60;101219.50;4820959;29;20060;-63
2021/08/01 21:26:24;;;;;;;15.27;3.25;;;;;;;16.37;74.86;101221.84;4815301;29;20046;-63
2021/08/01 21:28:51;;;;;;;15.80;3.83;;;;;;;16.58;74.19;101223.00;4823184;29;20547;-62
2021/08/01 21:31:17;;;;;;;25.77;3.75;;;;;;;16.61;74.00;101230.63;4827840;29;20148;-62
2021/08/01 21:33:44;;;;;;;21.30;4.10;;;;;;;16.66;74.31;101219.47;4823315;29;20135;-63
2021/08/01 21:36:10;;;;;;;14.48;3.80;;;;;;;16.59;73.90;101219.38;4823421;29;20068;-63
2021/08/01 21:38:37;;;;;;;13.30;3.80;;;;;;;16.52;74.66;101221.06;4810505;29;20056;-62
2021/08/01 21:41:03;;;;;;;20.05;6.22;;;;;;;16.76;73.70;101220.91;4809646;29;20148;-63
2021/08/01 21:43:30;;;;;;;14.93;4.50;;;;;;;16.68;73.19;101226.28;4807671;29;20137;-63
2021/08/01 21:45:56;;;;;;;15.13;4.70;;;;;;;16.53;73.87;101226.19;4817167;29;20154;-63
2021/08/01 21:48:24;;;;;;;16.80;4.50;;;;;;;16.45;75.05;101225.44;4814379;29;20054;-63
2021/08/01 21:50:50;;;;;;;14.73;4.43;;;;;;;16.40;74.94;101221.47;4792097;29;20050;-63
2021/08/01 21:53:17;;;;;;;15.23;4.40;;;;;;;16.51;74.54;101216.78;4812965;29;20221;-63
2021/08/01 21:55:43;;;;;;;16.08;4.28;;;;;;;16.55;74.88;101226.03;4805004;29;20254;-63
2021/08/01 21:58:10;;;;;;;12.77;3.95;;;;;;;16.55;74.32;101224.19;4816108;29;21513;-63
2021/08/01 22:00:37;;;;;;;13.68;3.50;;;;;;;16.32;75.16;101229.47;4806295;29;20170;-63
2021/08/01 22:03:16;;;;;;;13.73;4.32;;;;;;;16.21;75.93;101233.34;4807035;29;20062;-64
2021/08/01 22:05:45;;;;;;;18.00;4.78;;;;;;;16.30;76.39;101234.09;4805311;29;20050;-64
2021/08/01 22:08:16;;;;;;;14.10;4.88;;;;;;;16.60;74.86;101235.09;4809000;29;20133;-63
2021/08/01 22:10:44;;;;;;;15.65;4.53;;;;;;;16.43;75.18;101235.38;4802112;29;20073;-61
2021/08/01 22:13:11;;;;;;;16.02;4.50;;;;;;;16.35;76.06;101234.41;4815384;29;20104;-64
2021/08/01 22:15:38;;;;;;;19.85;4.57;;;;;;;16.26;77.34;101230.16;4815836;29;20149;-63
2021/08/01 22:18:06;;;;;;;17.67;5.20;;;;;;;16.17;76.84;101239.97;4809396;29;20472;-64
2021/08/01 22:20:32;;;;;;;17.13;5.15;;;;;;;16.19;76.60;101237.97;4814626;29;20060;-64
2021/08/01 22:22:59;;;;;;;15.90;4.40;;;;;;;16.28;76.28;101240.59;4803641;29;20254;-64
2021/08/01 22:25:27;;;;;;;17.38;4.93;;;;;;;15.97;76.95;101250.13;4816325;29;20056;-64
2021/08/01 22:27:55;;;;;;;15.27;4.82;;;;;;;16.11;77.42;101245.13;4812014;29;20371;-63
2021/08/01 22:30:22;;;;;;;19.33;5.35;;;;;;;16.20;75.48;101238.78;4815888;29;21029;-63
2021/08/01 22:32:50;;;;;;;14.27;4.78;;;;;;;16.27;76.44;101244.22;4808571;29;20603;-64
2021/08/01 22:35:17;;;;;;;21.10;4.88;;;;;;;16.47;75.14;101244.63;4815366;29;20145;-63
2021/08/01 22:37:48;;;;;;;13.48;4.40;;;;;;;16.35;76.86;101246.84;4814711;29;20481;-62
2021/08/01 22:40:17;;;;;;;12.32;4.43;;;;;;;16.80;73.27;101247.88;4803903;29;20418;-62
2021/08/01 22:42:46;;;;;;;14.75;4.50;;;;;;;17.06;71.77;101241.41;4819623;29;20949;-63
2021/08/01 22:45:13;;;;;;;17.55;5.00;;;;;;;17.21;70.57;101242.28;4814332;29;20463;-62
2021/08/01 22:47:40;;;;;;;15.60;4.80;;;;;;;17.41;69.88;101247.88;4819587;29;20505;-63
2021/08/01 22:50:08;;;;;;;16.63;4.20;;;;;;;17.62;68.91;101246.31;4808118;29;20062;-63
2021/08/01 22:52:34;;;;;;;19.40;4.65;;;;;;;17.76;68.33;101253.47;4816378;29;20050;-63
2021/08/01 22:55:01;;;;;;;19.75;4.45;;;;;;;17.81;68.39;101250.28;4813938;29;20057;-63
2021/08/01 22:57:28;;;;;;;14.55;4.10;;;;;;;17.83;67.14;101258.88;4819476;29;20080;-63
2021/08/01 22:59:54;;;;;;;10.75;4.10;;;;;;;18.08;67.45;101254.94;4820137;29;20218;-63
2021/08/01 23:02:28;;;;;;;12.65;3.95;;;;;;;18.13;66.65;101249.91;4809696;29;20418;-63
2021/08/01 23:05:01;;;;;;;17.52;4.38;;;;;;;16.82;71.16;101251.19;4815163;29;20161;-61
2021/08/01 23:07:49;;;;;;;16.65;4.70;;;;;;;16.27;74.56;101258.28;4817709;29;20534;-63
2021/08/01 23:10:21;;;;;;;19.27;4.63;;;;;;;16.05;76.24;101259.84;4817996;29;20054;-63
2021/08/01 23:13:08;;;;;;;12.55;4.35;;;;;;;15.95;76.65;101267.19;4811406;29;20056;-62
2021/08/01 23:15:41;;;;;;;15.23;4.60;;;;;;;16.31;76.11;101267.53;4817890;29;20408;-63
2021/08/01 23:18:14;;;;;;;16.92;4.30;;;;;;;16.18;75.83;101264.63;4797255;29;20061;-63
2021/08/01 23:20:45;;;;;;;12.25;4.65;;;;;;;15.88;77.28;101261.75;4816594;29;20050;-63
2021/08/01 23:23:19;;;;;;;17.00;4.40;;;;;;;15.75;77.58;101270.22;4812436;29;20136;-63
2021/08/01 23:25:58;;;;;;;19.30;4.20;;;;;;;15.75;77.43;101264.09;4819057;29;20149;-63
2021/08/01 23:28:25;;;;;;;9.73;4.03;;;;;;;15.67;77.58;101267.56;4811826;29;20542;-63
2021/08/01 23:30:56;;;;;;;15.00;4.63;;;;;;;15.66;78.49;101268.56;4814849;29;20546;-63
2021/08/01 23:33:25;;;;;;;13.80;4.65;;;;;;;15.49;79.10;101265.13;4810088;29;20050;-63
2021/08/01 23:35:52;;;;;;;16.98;4.90;;;;;;;15.39;79.85;101273.22;4812562;29;20060;-63
2021/08/01 23:38:24;;;;;;;13.40;3.90;;;;;;;15.27;80.02;101258.72;4819436;29;20141;-64
2021/08/01 23:40:51;;;;;;;10.32;4.05;;;;;;;15.36;80.25;101270.09;4795750;29;20144;-63
2021/08/01 23:43:22;;;;;;;21.88;4.80;;;;;;;15.46;80.04;101262.81;4818931;29;20077;-63
2021/08/01 23:45:50;;;;;;;18.15;4.18;;;;;;;15.39;80.00;101264.47;4805473;29;20429;-63
2021/08/01 23:48:22;;;;;;;16.17;4.57;;;;;;;15.33;79.58;101258.03;4819082;29;20140;-63
2021/08/01 23:51:03;;;;;;;12.20;4.88;;;;;;;15.37;80.48;101261.19;4810348;29;20054;-63
2021/08/01 23:53:46;;;;;;;12.48;4.45;;;;;;;15.31;79.90;101259.19;4809842;29;20049;-63
2021/08/01 23:56:48;;;;;;;15.75;5.00;;;;;;;15.49;80.37;101259.03;4799359;29;20202;-62
2021/08/01 23:59:29;;;;;;;13.63;4.43;;;;;;;15.46;79.87;101252.22;4782535;29;20687;-63
